sensor_id;sensor_type;location;lat;lon;timestamp;temperature;humidity
51021;DHT22;38907;45.562;8.856;2022-09-09T00:03:38;23.40;99.90
51021;DHT22;38907;45.562;8.856;2022-09-09T00:08:52;23.50;99.90
51021;DHT22;38907;45.562;8.856;2022-09-09T00:13:59;23.40;99.90
51021;DHT22;38907;45.562;8.856;2022-09-09T00:19:08;23.10;99.90
51021;DHT22;38907;45.562;8.856;2022-09-09T00:24:24;23.20;99.90
51021;DHT22;38907;45.562;8.856;2022-09-09T00:29:35;23.10;99.90
51021;DHT22;38907;45.562;8.856;2022-09-09T00:34:47;23.10;99.90
51021;DHT22;38907;45.562;8.856;2022-09-09T00:39:52;23.20;99.90
51021;DHT22;38907;45.562;8.856;2022-09-09T00:45:01;23.00;99.90
51021;DHT22;38907;45.562;8.856;2022-09-09T00:50:15;22.80;99.90
51021;DHT22;38907;45.562;8.856;2022-09-09T00:55:27;22.60;99.90
51021;DHT22;38907;45.562;8.856;2022-09-09T01:00:38;22.60;99.90
51021;DHT22;38907;45.562;8.856;2022-09-09T01:05:47;22.50;99.90
51021;DHT22;38907;45.562;8.856;2022-09-09T01:10:54;22.40;99.90
51021;DHT22;38907;45.562;8.856;2022-09-09T01:15:59;22.50;99.90
51021;DHT22;38907;45.562;8.856;2022-09-09T01:21:09;22.50;99.90
51021;DHT22;38907;45.562;8.856;2022-09-09T01:26:25;22.40;99.90
51021;DHT22;38907;45.562;8.856;2022-09-09T01:31:31;22.50;99.90
51021;DHT22;38907;45.562;8.856;2022-09-09T01:36:38;22.60;99.90
51021;DHT22;38907;45.562;8.856;2022-09-09T01:41:44;22.70;99.90
51021;DHT22;38907;45.562;8.856;2022-09-09T01:46:47;22.80;99.90
51021;DHT22;38907;45.562;8.856;2022-09-09T01:51:52;22.50;99.90
51021;DHT22;38907;45.562;8.856;2022-09-09T01:57:02;22.40;99.90
51021;DHT22;38907;45.562;8.856;2022-09-09T02:02:11;22.70;99.90
51021;DHT22;38907;45.562;8.856;2022-09-09T02:07:35;22.80;99.90
51021;DHT22;38907;45.562;8.856;2022-09-09T02:12:45;22.70;99.90
51021;DHT22;38907;45.562;8.856;2022-09-09T02:17:50;22.90;99.90
51021;DHT22;38907;45.562;8.856;2022-09-09T02:22:54;23.00;99.90
51021;DHT22;38907;45.562;8.856;2022-09-09T02:27:59;23.10;99.90
51021;DHT22;38907;45.562;8.856;2022-09-09T02:33:05;23.10;99.90
51021;DHT22;38907;45.562;8.856;2022-09-09T02:38:12;23.20;99.90
51021;DHT22;38907;45.562;8.856;2022-09-09T02:43:17;23.10;99.90
51021;DHT22;38907;45.562;8.856;2022-09-09T02:48:27;23.00;99.90
51021;DHT22;38907;45.562;8.856;2022-09-09T02:53:39;22.90;99.90
51021;DHT22;38907;45.562;8.856;2022-09-09T02:58:45;22.70;99.90
51021;DHT22;38907;45.562;8.856;2022-09-09T03:03:48;22.50;99.90
51021;DHT22;38907;45.562;8.856;2022-09-09T03:08:50;22.40;99.90
51021;DHT22;38907;45.562;8.856;2022-09-09T03:13:54;22.30;99.90
51021;DHT22;38907;45.562;8.856;2022-09-09T03:18:57;22.10;99.90
51021;DHT22;38907;45.562;8.856;2022-09-09T03:23:59;22.00;99.90
51021;DHT22;38907;45.562;8.856;2022-09-09T03:29:05;22.00;99.90
51021;DHT22;38907;45.562;8.856;2022-09-09T03:34:08;22.00;99.90
51021;DHT22;38907;45.562;8.856;2022-09-09T03:39:11;21.90;99.90
51021;DHT22;38907;45.562;8.856;2022-09-09T03:44:16;21.80;99.90
51021;DHT22;38907;45.562;8.856;2022-09-09T03:49:19;21.70;99.90
51021;DHT22;38907;45.562;8.856;2022-09-09T03:54:23;21.60;99.90
51021;DHT22;38907;45.562;8.856;2022-09-09T03:59:26;21.50;99.90
51021;DHT22;38907;45.562;8.856;2022-09-09T04:04:29;21.40;99.90
51021;DHT22;38907;45.562;8.856;2022-09-09T04:09:31;21.50;99.90
51021;DHT22;38907;45.562;8.856;2022-09-09T04:14:35;21.50;99.90
51021;DHT22;38907;45.562;8.856;2022-09-09T04:19:38;21.20;99.90
51021;DHT22;38907;45.562;8.856;2022-09-09T04:24:40;21.10;99.90
51021;DHT22;38907;45.562;8.856;2022-09-09T04:29:44;21.50;99.90
51021;DHT22;38907;45.562;8.856;2022-09-09T04:34:47;21.40;99.90
51021;DHT22;38907;45.562;8.856;2022-09-09T04:39:50;21.20;99.90
51021;DHT22;38907;45.562;8.856;2022-09-09T04:44:56;21.10;99.90
51021;DHT22;38907;45.562;8.856;2022-09-09T04:49:58;21.10;99.90
51021;DHT22;38907;45.562;8.856;2022-09-09T04:55:01;21.20;99.90
51021;DHT22;38907;45.562;8.856;2022-09-09T05:00:07;21.30;99.90
51021;DHT22;38907;45.562;8.856;2022-09-09T05:05:11;21.30;99.90
51021;DHT22;38907;45.562;8.856;2022-09-09T05:10:13;21.20;99.90
51021;DHT22;38907;45.562;8.856;2022-09-09T05:15:18;21.20;99.90
51021;DHT22;38907;45.562;8.856;2022-09-09T05:20:22;21.20;99.90
51021;DHT22;38907;45.562;8.856;2022-09-09T05:25:24;21.10;99.90
51021;DHT22;38907;45.562;8.856;2022-09-09T05:30:29;21.00;99.90
51021;DHT22;38907;45.562;8.856;2022-09-09T05:35:32;20.80;99.90
51021;DHT22;38907;45.562;8.856;2022-09-09T05:40:34;20.80;99.90
51021;DHT22;38907;45.562;8.856;2022-09-09T05:45:38;20.70;99.90
51021;DHT22;38907;45.562;8.856;2022-09-09T05:50:41;20.60;99.90
51021;DHT22;38907;45.562;8.856;2022-09-09T05:55:45;20.80;99.90
51021;DHT22;38907;45.562;8.856;2022-09-09T06:00:49;20.90;99.90
51021;DHT22;38907;45.562;8.856;2022-09-09T06:05:57;21.00;99.90
51021;DHT22;38907;45.562;8.856;2022-09-09T06:11:04;21.20;99.90
51021;DHT22;38907;45.562;8.856;2022-09-09T06:16:10;21.20;99.90
51021;DHT22;38907;45.562;8.856;2022-09-09T06:21:16;21.20;99.90
51021;DHT22;38907;45.562;8.856;2022-09-09T06:26:20;21.00;99.90
51021;DHT22;38907;45.562;8.856;2022-09-09T06:31:27;21.10;99.90
51021;DHT22;38907;45.562;8.856;2022-09-09T06:36:34;21.20;99.90
51021;DHT22;38907;45.562;8.856;2022-09-09T06:41:37;21.10;99.90
51021;DHT22;38907;45.562;8.856;2022-09-09T06:46:42;20.90;99.90
51021;DHT22;38907;45.562;8.856;2022-09-09T06:51:45;21.10;99.90
51021;DHT22;38907;45.562;8.856;2022-09-09T06:56:48;21.40;99.90
51021;DHT22;38907;45.562;8.856;2022-09-09T07:01:52;21.40;99.90
51021;DHT22;38907;45.562;8.856;2022-09-09T07:06:55;21.60;99.90
51021;DHT22;38907;45.562;8.856;2022-09-09T07:11:59;21.60;99.90
51021;DHT22;38907;45.562;8.856;2022-09-09T07:17:03;21.70;99.90
51021;DHT22;38907;45.562;8.856;2022-09-09T07:22:06;21.50;99.90
51021;DHT22;38907;45.562;8.856;2022-09-09T07:27:08;21.50;99.90
51021;DHT22;38907;45.562;8.856;2022-09-09T07:32:12;21.60;99.90
51021;DHT22;38907;45.562;8.856;2022-09-09T07:37:15;21.40;99.90
51021;DHT22;38907;45.562;8.856;2022-09-09T07:42:18;21.40;99.90
51021;DHT22;38907;45.562;8.856;2022-09-09T07:47:22;21.70;99.90
51021;DHT22;38907;45.562;8.856;2022-09-09T07:52:25;21.80;99.90
51021;DHT22;38907;45.562;8.856;2022-09-09T07:57:29;21.90;99.90
51021;DHT22;38907;45.562;8.856;2022-09-09T08:02:33;21.80;99.90
51021;DHT22;38907;45.562;8.856;2022-09-09T08:07:36;21.80;99.90
51021;DHT22;38907;45.562;8.856;2022-09-09T08:12:38;22.20;99.90
51021;DHT22;38907;45.562;8.856;2022-09-09T08:17:42;22.30;99.90
51021;DHT22;38907;45.562;8.856;2022-09-09T08:22:44;22.70;99.90
51021;DHT22;38907;45.562;8.856;2022-09-09T08:27:47;22.80;99.90
51021;DHT22;38907;45.562;8.856;2022-09-09T08:32:51;23.00;99.90
51021;DHT22;38907;45.562;8.856;2022-09-09T08:37:54;23.10;99.90
51021;DHT22;38907;45.562;8.856;2022-09-09T08:42:59;23.20;99.90
51021;DHT22;38907;45.562;8.856;2022-09-09T08:48:21;23.00;99.90
51021;DHT22;38907;45.562;8.856;2022-09-09T08:53:28;23.10;99.90
51021;DHT22;38907;45.562;8.856;2022-09-09T08:58:33;23.20;99.90
51021;DHT22;38907;45.562;8.856;2022-09-09T09:03:43;23.70;99.90
51021;DHT22;38907;45.562;8.856;2022-09-09T09:08:59;23.80;99.90
51021;DHT22;38907;45.562;8.856;2022-09-09T09:14:03;23.90;99.90
51021;DHT22;38907;45.562;8.856;2022-09-09T09:19:14;24.00;99.90
51021;DHT22;38907;45.562;8.856;2022-09-09T09:24:19;23.70;99.90
51021;DHT22;38907;45.562;8.856;2022-09-09T09:29:25;23.50;99.90
51021;DHT22;38907;45.562;8.856;2022-09-09T09:34:29;23.60;99.90
51021;DHT22;38907;45.562;8.856;2022-09-09T09:39:33;23.60;99.90
51021;DHT22;38907;45.562;8.856;2022-09-09T09:44:39;23.70;99.90
51021;DHT22;38907;45.562;8.856;2022-09-09T09:49:52;23.90;99.90
51021;DHT22;38907;45.562;8.856;2022-09-09T09:54:57;24.20;99.90
51021;DHT22;38907;45.562;8.856;2022-09-09T10:00:03;24.20;99.90
51021;DHT22;38907;45.562;8.856;2022-09-09T10:05:15;24.30;99.90
51021;DHT22;38907;45.562;8.856;2022-09-09T10:10:22;24.50;99.90
51021;DHT22;38907;45.562;8.856;2022-09-09T10:15:36;24.40;99.90
51021;DHT22;38907;45.562;8.856;2022-09-09T10:20:49;24.40;99.90
51021;DHT22;38907;45.562;8.856;2022-09-09T10:26:04;24.80;99.90
51021;DHT22;38907;45.562;8.856;2022-09-09T10:31:17;25.20;99.90
51021;DHT22;38907;45.562;8.856;2022-09-09T10:36:26;25.40;99.90
51021;DHT22;38907;45.562;8.856;2022-09-09T10:41:42;25.20;99.90
51021;DHT22;38907;45.562;8.856;2022-09-09T10:47:07;25.40;99.90
51021;DHT22;38907;45.562;8.856;2022-09-09T10:52:19;25.70;99.90
51021;DHT22;38907;45.562;8.856;2022-09-09T10:57:29;25.00;99.90
51021;DHT22;38907;45.562;8.856;2022-09-09T11:02:34;25.60;99.90
51021;DHT22;38907;45.562;8.856;2022-09-09T11:07:42;25.70;99.90
51021;DHT22;38907;45.562;8.856;2022-09-09T11:12:48;25.90;99.90
51021;DHT22;38907;45.562;8.856;2022-09-09T11:17:55;26.20;99.90
51021;DHT22;38907;45.562;8.856;2022-09-09T11:23:03;25.70;99.90
51021;DHT22;38907;45.562;8.856;2022-09-09T11:28:21;26.10;99.90
51021;DHT22;38907;45.562;8.856;2022-09-09T11:33:57;25.90;99.90
51021;DHT22;38907;45.562;8.856;2022-09-09T11:39:10;26.00;99.90
51021;DHT22;38907;45.562;8.856;2022-09-09T11:44:27;26.00;99.90
51021;DHT22;38907;45.562;8.856;2022-09-09T11:49:41;26.30;99.90
51021;DHT22;38907;45.562;8.856;2022-09-09T11:54:49;26.30;99.90
51021;DHT22;38907;45.562;8.856;2022-09-09T11:59:52;26.10;99.90
51021;DHT22;38907;45.562;8.856;2022-09-09T12:04:59;26.30;99.90
51021;DHT22;38907;45.562;8.856;2022-09-09T12:10:23;26.00;99.90
51021;DHT22;38907;45.562;8.856;2022-09-09T12:15:28;26.20;99.90
51021;DHT22;38907;45.562;8.856;2022-09-09T12:20:36;26.30;99.90
51021;DHT22;38907;45.562;8.856;2022-09-09T12:25:58;26.60;99.90
51021;DHT22;38907;45.562;8.856;2022-09-09T12:31:06;26.70;99.90
51021;DHT22;38907;45.562;8.856;2022-09-09T12:36:12;26.60;99.90
51021;DHT22;38907;45.562;8.856;2022-09-09T12:41:22;26.60;99.90
51021;DHT22;38907;45.562;8.856;2022-09-09T12:46:32;26.90;99.90
51021;DHT22;38907;45.562;8.856;2022-09-09T12:51:37;26.90;99.90
51021;DHT22;38907;45.562;8.856;2022-09-09T12:56:46;26.80;99.90
51021;DHT22;38907;45.562;8.856;2022-09-09T13:01:56;26.50;99.90
51021;DHT22;38907;45.562;8.856;2022-09-09T13:07:06;26.60;99.90
51021;DHT22;38907;45.562;8.856;2022-09-09T13:12:15;26.70;99.60
51021;DHT22;38907;45.562;8.856;2022-09-09T13:17:21;26.50;99.90
51021;DHT22;38907;45.562;8.856;2022-09-09T13:22:30;26.60;99.30
51021;DHT22;38907;45.562;8.856;2022-09-09T13:27:36;26.90;99.60
51021;DHT22;38907;45.562;8.856;2022-09-09T13:32:40;27.00;99.40
51021;DHT22;38907;45.562;8.856;2022-09-09T13:37:43;27.10;99.00
51021;DHT22;38907;45.562;8.856;2022-09-09T13:42:50;27.10;98.80
51021;DHT22;38907;45.562;8.856;2022-09-09T13:47:54;27.20;98.00
51021;DHT22;38907;45.562;8.856;2022-09-09T13:52:58;27.20;97.90
51021;DHT22;38907;45.562;8.856;2022-09-09T13:58:03;27.20;98.30
51021;DHT22;38907;45.562;8.856;2022-09-09T14:03:07;27.00;97.10
51021;DHT22;38907;45.562;8.856;2022-09-09T14:08:19;27.10;97.20
51021;DHT22;38907;45.562;8.856;2022-09-09T14:13:24;27.30;97.70
51021;DHT22;38907;45.562;8.856;2022-09-09T14:18:26;27.30;97.00
51021;DHT22;38907;45.562;8.856;2022-09-09T14:23:30;27.40;97.40
51021;DHT22;38907;45.562;8.856;2022-09-09T14:28:36;27.50;97.40
51021;DHT22;38907;45.562;8.856;2022-09-09T14:33:39;27.40;97.20
51021;DHT22;38907;45.562;8.856;2022-09-09T14:38:41;27.10;96.90
51021;DHT22;38907;45.562;8.856;2022-09-09T14:43:46;27.20;96.80
51021;DHT22;38907;45.562;8.856;2022-09-09T14:48:49;27.40;96.20
51021;DHT22;38907;45.562;8.856;2022-09-09T14:53:52;27.50;96.10
51021;DHT22;38907;45.562;8.856;2022-09-09T14:58:58;27.40;95.40
51021;DHT22;38907;45.562;8.856;2022-09-09T15:04:04;27.40;95.60
51021;DHT22;38907;45.562;8.856;2022-09-09T15:09:07;27.60;95.30
51021;DHT22;38907;45.562;8.856;2022-09-09T15:14:11;27.60;94.90
51021;DHT22;38907;45.562;8.856;2022-09-09T15:19:14;27.60;95.10
51021;DHT22;38907;45.562;8.856;2022-09-09T15:24:17;27.60;94.90
51021;DHT22;38907;45.562;8.856;2022-09-09T15:29:21;27.70;96.00
51021;DHT22;38907;45.562;8.856;2022-09-09T15:34:23;27.60;95.20
51021;DHT22;38907;45.562;8.856;2022-09-09T15:39:26;27.60;95.30
51021;DHT22;38907;45.562;8.856;2022-09-09T15:44:38;27.70;94.90
51021;DHT22;38907;45.562;8.856;2022-09-09T15:49:41;27.70;94.60
51021;DHT22;38907;45.562;8.856;2022-09-09T15:54:44;27.50;94.70
51021;DHT22;38907;45.562;8.856;2022-09-09T15:59:48;27.30;94.20
51021;DHT22;38907;45.562;8.856;2022-09-09T16:04:51;27.10;94.10
51021;DHT22;38907;45.562;8.856;2022-09-09T16:09:53;27.40;94.30
51021;DHT22;38907;45.562;8.856;2022-09-09T16:14:57;27.50;94.50
51021;DHT22;38907;45.562;8.856;2022-09-09T16:20:01;27.60;94.30
51021;DHT22;38907;45.562;8.856;2022-09-09T16:25:04;27.40;94.60
51021;DHT22;38907;45.562;8.856;2022-09-09T16:30:09;27.30;95.00
51021;DHT22;38907;45.562;8.856;2022-09-09T16:35:12;27.30;95.20
51021;DHT22;38907;45.562;8.856;2022-09-09T16:40:15;27.10;94.30
51021;DHT22;38907;45.562;8.856;2022-09-09T16:45:19;27.00;94.60
51021;DHT22;38907;45.562;8.856;2022-09-09T16:50:22;26.80;94.60
51021;DHT22;38907;45.562;8.856;2022-09-09T16:55:25;26.70;95.20
51021;DHT22;38907;45.562;8.856;2022-09-09T17:00:30;26.70;95.20
51021;DHT22;38907;45.562;8.856;2022-09-09T17:05:32;26.60;95.20
51021;DHT22;38907;45.562;8.856;2022-09-09T17:10:34;26.40;94.60
51021;DHT22;38907;45.562;8.856;2022-09-09T17:15:44;26.40;94.80
51021;DHT22;38907;45.562;8.856;2022-09-09T17:20:47;26.30;95.40
51021;DHT22;38907;45.562;8.856;2022-09-09T17:25:56;26.30;94.70
51021;DHT22;38907;45.562;8.856;2022-09-09T17:31:00;26.30;95.40
51021;DHT22;38907;45.562;8.856;2022-09-09T17:36:07;26.20;95.60
51021;DHT22;38907;45.562;8.856;2022-09-09T17:41:14;26.10;96.10
51021;DHT22;38907;45.562;8.856;2022-09-09T17:46:19;26.00;96.30
51021;DHT22;38907;45.562;8.856;2022-09-09T17:51:23;25.90;96.90
51021;DHT22;38907;45.562;8.856;2022-09-09T17:56:30;25.80;97.30
51021;DHT22;38907;45.562;8.856;2022-09-09T18:01:36;25.60;98.60
51021;DHT22;38907;45.562;8.856;2022-09-09T18:06:40;25.40;99.10
51021;DHT22;38907;45.562;8.856;2022-09-09T18:11:45;25.20;99.10
51021;DHT22;38907;45.562;8.856;2022-09-09T18:16:49;25.10;98.70
51021;DHT22;38907;45.562;8.856;2022-09-09T18:21:52;25.10;98.70
51021;DHT22;38907;45.562;8.856;2022-09-09T18:26:55;25.00;99.30
51021;DHT22;38907;45.562;8.856;2022-09-09T18:31:59;25.00;99.90
51021;DHT22;38907;45.562;8.856;2022-09-09T18:37:02;24.80;99.90
51021;DHT22;38907;45.562;8.856;2022-09-09T18:42:05;24.60;99.90
51021;DHT22;38907;45.562;8.856;2022-09-09T18:47:09;24.40;99.90
51021;DHT22;38907;45.562;8.856;2022-09-09T18:52:12;24.00;99.90
51021;DHT22;38907;45.562;8.856;2022-09-09T18:57:15;23.80;99.90
51021;DHT22;38907;45.562;8.856;2022-09-09T19:02:20;23.80;99.90
51021;DHT22;38907;45.562;8.856;2022-09-09T19:07:23;23.90;99.90
51021;DHT22;38907;45.562;8.856;2022-09-09T19:12:25;24.00;99.90
51021;DHT22;38907;45.562;8.856;2022-09-09T19:17:32;24.10;99.90
51021;DHT22;38907;45.562;8.856;2022-09-09T19:22:35;23.60;99.90
51021;DHT22;38907;45.562;8.856;2022-09-09T19:27:38;23.50;99.90
51021;DHT22;38907;45.562;8.856;2022-09-09T19:32:41;23.50;99.90
51021;DHT22;38907;45.562;8.856;2022-09-09T19:37:44;23.40;99.90
51021;DHT22;38907;45.562;8.856;2022-09-09T19:42:47;23.50;99.90
51021;DHT22;38907;45.562;8.856;2022-09-09T19:47:53;23.40;99.90
51021;DHT22;38907;45.562;8.856;2022-09-09T19:52:55;23.30;99.90
51021;DHT22;38907;45.562;8.856;2022-09-09T19:58:00;23.40;99.90
51021;DHT22;38907;45.562;8.856;2022-09-09T20:03:05;23.50;99.90
51021;DHT22;38907;45.562;8.856;2022-09-09T20:08:08;23.70;99.90
51021;DHT22;38907;45.562;8.856;2022-09-09T20:13:10;23.80;99.90
51021;DHT22;38907;45.562;8.856;2022-09-09T20:18:14;23.80;99.90
51021;DHT22;38907;45.562;8.856;2022-09-09T20:23:17;23.80;99.90
51021;DHT22;38907;45.562;8.856;2022-09-09T20:28:19;23.60;99.90
51021;DHT22;38907;45.562;8.856;2022-09-09T20:33:23;23.40;99.90
51021;DHT22;38907;45.562;8.856;2022-09-09T20:38:26;23.40;99.90
51021;DHT22;38907;45.562;8.856;2022-09-09T20:43:28;23.50;99.90
51021;DHT22;38907;45.562;8.856;2022-09-09T20:48:33;23.30;99.90
51021;DHT22;38907;45.562;8.856;2022-09-09T20:53:36;23.30;99.90
51021;DHT22;38907;45.562;8.856;2022-09-09T20:58:39;23.20;99.90
51021;DHT22;38907;45.562;8.856;2022-09-09T21:03:42;23.10;99.90
51021;DHT22;38907;45.562;8.856;2022-09-09T21:08:46;22.90;99.90
51021;DHT22;38907;45.562;8.856;2022-09-09T21:13:49;22.50;99.90
51021;DHT22;38907;45.562;8.856;2022-09-09T21:18:54;22.30;99.90
51021;DHT22;38907;45.562;8.856;2022-09-09T21:23:57;22.40;99.90
51021;DHT22;38907;45.562;8.856;2022-09-09T21:29:00;22.10;99.90
51021;DHT22;38907;45.562;8.856;2022-09-09T21:34:04;22.00;99.90
51021;DHT22;38907;45.562;8.856;2022-09-09T21:39:06;21.90;99.90
51021;DHT22;38907;45.562;8.856;2022-09-09T21:44:09;21.50;99.90
